sensor_id;sensor_type;location;lat;lon;timestamp;pressure;altitude;pressure_sealevel;temperature;humidity
46955;BME280;32708;51.212;6.788;2023-04-23T00:01:13;100212.06;;;16.77;100.00
46955;BME280;32708;51.212;6.788;2023-04-23T00:03:44;100214.38;;;16.72;100.00
46955;BME280;32708;51.212;6.788;2023-04-23T00:06:11;100218.56;;;16.92;100.00
46955;BME280;32708;51.212;6.788;2023-04-23T00:08:42;100217.25;;;16.79;100.00
46955;BME280;32708;51.212;6.788;2023-04-23T00:11:10;100216.91;;;16.58;100.00
46955;BME280;32708;51.212;6.788;2023-04-23T00:13:37;100211.63;;;16.45;100.00
46955;BME280;32708;51.212;6.788;2023-04-23T00:16:04;100218.03;;;16.80;100.00
46955;BME280;32708;51.212;6.788;2023-04-23T00:18:30;100221.06;;;17.01;100.00
46955;BME280;32708;51.212;6.788;2023-04-23T00:20:56;100204.94;;;17.37;100.00
46955;BME280;32708;51.212;6.788;2023-04-23T00:23:23;100214.03;;;17.41;100.00
46955;BME280;32708;51.212;6.788;2023-04-23T00:25:49;100213.56;;;17.35;100.00
46955;BME280;32708;51.212;6.788;2023-04-23T00:28:16;100210.78;;;16.98;100.00
46955;BME280;32708;51.212;6.788;2023-04-23T00:30:42;100203.97;;;17.22;100.00
46955;BME280;32708;51.212;6.788;2023-04-23T00:33:09;100209.13;;;17.27;100.00
46955;BME280;32708;51.212;6.788;2023-04-23T00:35:35;100207.41;;;17.49;100.00
46955;BME280;32708;51.212;6.788;2023-04-23T00:38:01;100206.53;;;17.41;100.00
46955;BME280;32708;51.212;6.788;2023-04-23T00:40:27;100214.03;;;17.41;100.00
46955;BME280;32708;51.212;6.788;2023-04-23T00:42:56;100204.22;;;17.43;100.00
46955;BME280;32708;51.212;6.788;2023-04-23T00:45:23;100207.75;;;17.44;100.00
46955;BME280;32708;51.212;6.788;2023-04-23T00:47:49;100208.41;;;17.30;100.00
46955;BME280;32708;51.212;6.788;2023-04-23T00:50:15;100204.94;;;17.37;100.00
46955;BME280;32708;51.212;6.788;2023-04-23T00:52:42;100197.63;;;17.55;100.00
46955;BME280;32708;51.212;6.788;2023-04-23T00:55:08;100193.41;;;16.67;100.00
46955;BME280;32708;51.212;6.788;2023-04-23T00:57:37;100205.31;;;17.01;100.00
46955;BME280;32708;51.212;6.788;2023-04-23T01:00:07;100211.25;;;17.07;100.00
46955;BME280;32708;51.212;6.788;2023-04-23T01:02:36;100195.63;;;17.15;100.00
46955;BME280;32708;51.212;6.788;2023-04-23T01:05:06;100198.81;;;17.20;100.00
46955;BME280;32708;51.212;6.788;2023-04-23T01:07:34;100197.38;;;17.33;100.00
46955;BME280;32708;51.212;6.788;2023-04-23T01:10:03;100194.56;;;17.26;100.00
46955;BME280;32708;51.212;6.788;2023-04-23T01:12:30;100193.97;;;17.10;100.00
46955;BME280;32708;51.212;6.788;2023-04-23T01:14:57;100182.72;;;16.92;100.00
46955;BME280;32708;51.212;6.788;2023-04-23T01:17:24;100195.53;;;16.77;100.00
46955;BME280;32708;51.212;6.788;2023-04-23T01:19:52;100190.59;;;16.90;100.00
46955;BME280;32708;51.212;6.788;2023-04-23T01:22:19;100191.19;;;16.76;100.00
46955;BME280;32708;51.212;6.788;2023-04-23T01:24:47;100184.94;;;16.53;100.00
46955;BME280;32708;51.212;6.788;2023-04-23T01:27:14;100191.47;;;16.15;100.00
46955;BME280;32708;51.212;6.788;2023-04-23T01:29:41;100191.47;;;16.15;100.00
46955;BME280;32708;51.212;6.788;2023-04-23T01:32:08;100189.66;;;16.26;100.00
46955;BME280;32708;51.212;6.788;2023-04-23T01:34:38;100192.03;;;16.28;100.00
46955;BME280;32708;51.212;6.788;2023-04-23T01:37:04;100200.69;;;16.26;100.00
46955;BME280;32708;51.212;6.788;2023-04-23T01:39:32;100196.44;;;16.59;100.00
46955;BME280;32708;51.212;6.788;2023-04-23T01:41:59;100191.53;;;16.45;100.00
46955;BME280;32708;51.212;6.788;2023-04-23T01:44:26;100182.03;;;16.42;100.00
46955;BME280;32708;51.212;6.788;2023-04-23T01:46:53;100182.97;;;16.54;100.00
46955;BME280;32708;51.212;6.788;2023-04-23T01:49:19;100181.69;;;16.44;100.00
46955;BME280;32708;51.212;6.788;2023-04-23T01:51:45;100176.97;;;16.44;100.00
46955;BME280;32708;51.212;6.788;2023-04-23T01:54:11;100175.72;;;16.42;100.00
46955;BME280;32708;51.212;6.788;2023-04-23T01:56:38;100178.38;;;16.35;100.00
46955;BME280;32708;51.212;6.788;2023-04-23T01:59:04;100172.09;;;16.64;100.00
46955;BME280;32708;51.212;6.788;2023-04-23T02:01:44;100175.00;;;16.45;100.00
46955;BME280;32708;51.212;6.788;2023-04-23T02:04:13;100183.41;;;16.03;100.00
46955;BME280;32708;51.212;6.788;2023-04-23T02:06:44;100194.84;;;16.05;100.00
46955;BME280;32708;51.212;6.788;2023-04-23T02:09:11;100181.50;;;16.33;100.00
46955;BME280;32708;51.212;6.788;2023-04-23T02:11:38;100177.75;;;16.45;100.00
46955;BME280;32708;51.212;6.788;2023-04-23T02:14:06;100183.56;;;16.40;100.00
46955;BME280;32708;51.212;6.788;2023-04-23T02:16:32;100179.84;;;16.29;100.00
46955;BME280;32708;51.212;6.788;2023-04-23T02:18:59;100179.91;;;16.06;100.00
46955;BME280;32708;51.212;6.788;2023-04-23T02:21:26;100169.53;;;16.48;100.00
46955;BME280;32708;51.212;6.788;2023-04-23T02:23:53;100175.59;;;16.31;100.00
46955;BME280;32708;51.212;6.788;2023-04-23T02:26:19;100175.34;;;16.70;100.00
46955;BME280;32708;51.212;6.788;2023-04-23T02:28:48;100179.53;;;16.34;100.00
46955;BME280;32708;51.212;6.788;2023-04-23T02:31:14;100183.59;;;15.90;100.00
46955;BME280;32708;51.212;6.788;2023-04-23T02:33:41;100181.88;;;16.05;100.00
46955;BME280;32708;51.212;6.788;2023-04-23T02:36:08;100179.13;;;16.32;100.00
46955;BME280;32708;51.212;6.788;2023-04-23T02:38:37;100186.50;;;15.75;100.00
46955;BME280;32708;51.212;6.788;2023-04-23T02:41:06;100180.34;;;15.62;100.00
46955;BME280;32708;51.212;6.788;2023-04-23T02:43:32;100184.66;;;15.82;100.00
46955;BME280;32708;51.212;6.788;2023-04-23T02:45:59;100184.81;;;15.28;100.00
46955;BME280;32708;51.212;6.788;2023-04-23T02:48:25;100182.44;;;15.26;100.00
46955;BME280;32708;51.212;6.788;2023-04-23T02:50:52;100182.66;;;15.60;100.00
46955;BME280;32708;51.212;6.788;2023-04-23T02:53:18;100180.34;;;15.85;100.00
46955;BME280;32708;51.212;6.788;2023-04-23T02:55:44;100175.50;;;15.55;100.00
46955;BME280;32708;51.212;6.788;2023-04-23T02:58:10;100176.19;;;15.72;100.00
46955;BME280;32708;51.212;6.788;2023-04-23T03:00:39;100169.47;;;15.92;100.00
46955;BME280;32708;51.212;6.788;2023-04-23T03:03:05;100185.69;;;15.12;100.00
46955;BME280;32708;51.212;6.788;2023-04-23T03:05:32;100175.78;;;15.69;100.00
46955;BME280;32708;51.212;6.788;2023-04-23T03:07:58;100171.66;;;15.60;100.00
46955;BME280;32708;51.212;6.788;2023-04-23T03:10:25;100180.06;;;15.48;100.00
46955;BME280;32708;51.212;6.788;2023-04-23T03:12:53;100164.03;;;15.95;100.00
46955;BME280;32708;51.212;6.788;2023-04-23T03:15:19;100166.69;;;16.15;100.00
46955;BME280;32708;51.212;6.788;2023-04-23T03:17:45;100159.06;;;16.31;100.00
46955;BME280;32708;51.212;6.788;2023-04-23T03:20:12;100157.22;;;15.89;100.00
46955;BME280;32708;51.212;6.788;2023-04-23T03:22:39;100158.84;;;15.48;100.00
46955;BME280;32708;51.212;6.788;2023-04-23T03:25:06;100145.16;;;15.98;100.00
46955;BME280;32708;51.212;6.788;2023-04-23T03:27:33;100157.91;;;15.60;100.00
46955;BME280;32708;51.212;6.788;2023-04-23T03:30:00;100161.59;;;15.48;100.00
46955;BME280;32708;51.212;6.788;2023-04-23T03:32:26;100155.94;;;15.60;100.00
46955;BME280;32708;51.212;6.788;2023-04-23T03:34:52;100152.53;;;15.90;100.00
46955;BME280;32708;51.212;6.788;2023-04-23T03:37:18;100157.66;;;15.68;100.00
46955;BME280;32708;51.212;6.788;2023-04-23T03:39:44;100147.91;;;15.98;100.00
46955;BME280;32708;51.212;6.788;2023-04-23T03:42:11;100150.88;;;15.62;100.00
46955;BME280;32708;51.212;6.788;2023-04-23T03:44:38;100146.25;;;15.93;100.00
46955;BME280;32708;51.212;6.788;2023-04-23T03:47:05;100149.41;;;15.68;100.00
46955;BME280;32708;51.212;6.788;2023-04-23T03:49:32;100148.31;;;15.73;100.00
46955;BME280;32708;51.212;6.788;2023-04-23T03:51:58;100142.94;;;15.57;100.00
46955;BME280;32708;51.212;6.788;2023-04-23T03:54:24;100146.34;;;15.08;100.00
46955;BME280;32708;51.212;6.788;2023-04-23T03:57:00;100137.13;;;15.62;100.00
46955;BME280;32708;51.212;6.788;2023-04-23T03:59:29;100148.84;;;15.59;100.00
46955;BME280;32708;51.212;6.788;2023-04-23T04:01:58;100140.88;;;15.74;100.00
46955;BME280;32708;51.212;6.788;2023-04-23T04:04:25;100140.75;;;16.16;100.00
46955;BME280;32708;51.212;6.788;2023-04-23T04:06:51;100152.00;;;15.38;100.00
46955;BME280;32708;51.212;6.788;2023-04-23T04:09:17;100151.09;;;15.31;100.00
46955;BME280;32708;51.212;6.788;2023-04-23T04:11:43;100142.72;;;15.47;100.00
46955;BME280;32708;51.212;6.788;2023-04-23T04:14:10;100156.31;;;15.17;100.00
46955;BME280;32708;51.212;6.788;2023-04-23T04:16:36;100149.69;;;14.98;100.00
46955;BME280;32708;51.212;6.788;2023-04-23T04:19:02;100152.19;;;15.26;100.00
46955;BME280;32708;51.212;6.788;2023-04-23T04:21:28;100131.97;;;15.61;100.00
46955;BME280;32708;51.212;6.788;2023-04-23T04:23:55;100147.91;;;15.29;100.00
46955;BME280;32708;51.212;6.788;2023-04-23T04:26:21;100149.00;;;15.24;100.00
46955;BME280;32708;51.212;6.788;2023-04-23T04:28:48;100145.47;;;14.85;100.00
46955;BME280;32708;51.212;6.788;2023-04-23T04:31:14;100138.13;;;15.31;100.00
46955;BME280;32708;51.212;6.788;2023-04-23T04:33:41;100144.97;;;14.99;100.00
46955;BME280;32708;51.212;6.788;2023-04-23T04:36:08;100136.06;;;15.05;100.00
46955;BME280;32708;51.212;6.788;2023-04-23T04:38:34;100132.53;;;15.70;100.00
46955;BME280;32708;51.212;6.788;2023-04-23T04:41:04;100126.47;;;15.38;100.00
46955;BME280;32708;51.212;6.788;2023-04-23T04:43:30;100132.00;;;15.41;100.00
46955;BME280;32708;51.212;6.788;2023-04-23T04:45:58;100144.53;;;15.81;100.00
46955;BME280;32708;51.212;6.788;2023-04-23T04:48:24;100139.72;;;16.01;100.00
46955;BME280;32708;51.212;6.788;2023-04-23T04:50:50;100157.84;;;16.02;100.00
46955;BME280;32708;51.212;6.788;2023-04-23T04:53:17;100147.75;;;16.40;100.00
46955;BME280;32708;51.212;6.788;2023-04-23T04:55:44;100143.69;;;16.90;100.00
46955;BME280;32708;51.212;6.788;2023-04-23T04:58:11;100144.81;;;17.19;100.00
46955;BME280;32708;51.212;6.788;2023-04-23T05:00:37;100145.28;;;17.25;100.00
46955;BME280;32708;51.212;6.788;2023-04-23T05:03:04;100145.28;;;17.28;100.00
46955;BME280;32708;51.212;6.788;2023-04-23T05:05:32;100152.78;;;16.91;100.00
46955;BME280;32708;51.212;6.788;2023-04-23T05:07:58;100143.69;;;16.60;100.00
46955;BME280;32708;51.212;6.788;2023-04-23T05:10:28;100150.38;;;16.59;100.00
46955;BME280;32708;51.212;6.788;2023-04-23T05:12:59;100157.03;;;16.85;100.00
46955;BME280;32708;51.212;6.788;2023-04-23T05:15:25;100142.63;;;16.98;100.00
46955;BME280;32708;51.212;6.788;2023-04-23T05:17:52;100143.13;;;17.08;100.00
46955;BME280;32708;51.212;6.788;2023-04-23T05:20:20;100139.06;;;17.35;100.00
46955;BME280;32708;51.212;6.788;2023-04-23T05:22:47;100155.28;;;17.03;100.00
46955;BME280;32708;51.212;6.788;2023-04-23T05:25:14;100152.59;;;17.47;100.00
46955;BME280;32708;51.212;6.788;2023-04-23T05:27:41;100129.34;;;17.08;100.00
46955;BME280;32708;51.212;6.788;2023-04-23T05:30:09;100132.88;;;17.90;100.00
46955;BME280;32708;51.212;6.788;2023-04-23T05:32:36;100138.78;;;17.47;100.00
46955;BME280;32708;51.212;6.788;2023-04-23T05:35:04;100148.81;;;17.22;100.00
46955;BME280;32708;51.212;6.788;2023-04-23T05:37:32;100141.47;;;17.37;100.00
46955;BME280;32708;51.212;6.788;2023-04-23T05:39:58;100144.09;;;17.26;100.00
46955;BME280;32708;51.212;6.788;2023-04-23T05:42:24;100149.00;;;17.06;100.00
46955;BME280;32708;51.212;6.788;2023-04-23T05:44:51;100138.47;;;17.56;100.00
46955;BME280;32708;51.212;6.788;2023-04-23T05:47:17;100146.97;;;17.37;100.00
46955;BME280;32708;51.212;6.788;2023-04-23T05:49:43;100148.59;;;17.04;100.00
46955;BME280;32708;51.212;6.788;2023-04-23T05:52:09;100146.47;;;17.27;100.00
46955;BME280;32708;51.212;6.788;2023-04-23T05:54:36;100152.72;;;17.21;100.00
46955;BME280;32708;51.212;6.788;2023-04-23T05:57:02;100157.66;;;17.04;100.00
46955;BME280;32708;51.212;6.788;2023-04-23T05:59:30;100148.22;;;17.05;100.00
46955;BME280;32708;51.212;6.788;2023-04-23T06:01:57;100156.53;;;16.75;100.00
46955;BME280;32708;51.212;6.788;2023-04-23T06:04:23;100159.69;;;16.21;100.00
46955;BME280;32708;51.212;6.788;2023-04-23T06:06:49;100156.38;;;16.95;100.00
46955;BME280;32708;51.212;6.788;2023-04-23T06:09:15;100149.16;;;17.20;100.00
46955;BME280;32708;51.212;6.788;2023-04-23T06:11:42;100150.59;;;17.07;100.00
46955;BME280;32708;51.212;6.788;2023-04-23T06:14:08;100142.44;;;17.18;100.00
46955;BME280;32708;51.212;6.788;2023-04-23T06:16:34;100147.53;;;17.56;100.00
46955;BME280;32708;51.212;6.788;2023-04-23T06:19:02;100136.47;;;17.94;100.00
46955;BME280;32708;51.212;6.788;2023-04-23T06:21:28;100132.47;;;17.87;100.00
46955;BME280;32708;51.212;6.788;2023-04-23T06:23:54;100149.81;;;17.44;100.00
46955;BME280;32708;51.212;6.788;2023-04-23T06:26:20;100131.41;;;18.06;100.00
46955;BME280;32708;51.212;6.788;2023-04-23T06:28:48;100142.41;;;17.55;100.00
46955;BME280;32708;51.212;6.788;2023-04-23T06:31:41;100129.47;;;18.14;100.00
46955;BME280;32708;51.212;6.788;2023-04-23T06:34:07;100127.84;;;18.68;100.00
46955;BME280;32708;51.212;6.788;2023-04-23T06:36:33;100117.19;;;18.77;99.96
46955;BME280;32708;51.212;6.788;2023-04-23T06:39:00;100126.53;;;18.48;100.00
46955;BME280;32708;51.212;6.788;2023-04-23T06:41:26;100126.69;;;18.73;100.00
46955;BME280;32708;51.212;6.788;2023-04-23T06:44:06;100121.78;;;18.45;100.00
46955;BME280;32708;51.212;6.788;2023-04-23T06:46:35;100131.63;;;18.42;100.00
46955;BME280;32708;51.212;6.788;2023-04-23T06:49:01;100120.00;;;18.08;100.00
46955;BME280;32708;51.212;6.788;2023-04-23T06:51:27;100131.38;;;18.03;100.00
46955;BME280;32708;51.212;6.788;2023-04-23T06:53:54;100125.22;;;18.24;100.00
46955;BME280;32708;51.212;6.788;2023-04-23T06:56:20;100121.97;;;18.84;99.55
46955;BME280;32708;51.212;6.788;2023-04-23T06:58:47;100103.88;;;19.15;98.47
46955;BME280;32708;51.212;6.788;2023-04-23T07:01:18;100106.97;;;18.88;99.23
46955;BME280;32708;51.212;6.788;2023-04-23T07:03:44;100115.25;;;18.08;100.00
46955;BME280;32708;51.212;6.788;2023-04-23T07:06:17;100109.75;;;18.95;99.08
46955;BME280;32708;51.212;6.788;2023-04-23T07:08:43;100092.84;;;19.50;95.22
46955;BME280;32708;51.212;6.788;2023-04-23T07:11:10;100085.34;;;19.79;93.34
46955;BME280;32708;51.212;6.788;2023-04-23T07:13:38;100104.88;;;18.64;99.59
46955;BME280;32708;51.212;6.788;2023-04-23T07:16:05;100079.81;;;19.87;94.43
46955;BME280;32708;51.212;6.788;2023-04-23T07:18:31;100072.75;;;20.84;86.92
46955;BME280;32708;51.212;6.788;2023-04-23T07:20:57;100063.84;;;20.33;86.29
46955;BME280;32708;51.212;6.788;2023-04-23T07:23:24;100080.03;;;20.56;90.06
46955;BME280;32708;51.212;6.788;2023-04-23T07:25:53;100064.63;;;21.14;84.82
46955;BME280;32708;51.212;6.788;2023-04-23T07:28:19;100065.53;;;21.56;83.30
46955;BME280;32708;51.212;6.788;2023-04-23T07:30:46;100058.75;;;22.02;79.49
46955;BME280;32708;51.212;6.788;2023-04-23T07:33:15;100066.16;;;21.75;80.42
46955;BME280;32708;51.212;6.788;2023-04-23T07:35:41;100052.97;;;22.88;74.82
46955;BME280;32708;51.212;6.788;2023-04-23T07:38:07;100060.34;;;23.02;72.39
46955;BME280;32708;51.212;6.788;2023-04-23T07:40:33;100072.31;;;21.96;77.79
46955;BME280;32708;51.212;6.788;2023-04-23T07:43:00;100070.38;;;21.93;77.91
46955;BME280;32708;51.212;6.788;2023-04-23T07:45:26;100069.16;;;22.32;76.17
46955;BME280;32708;51.212;6.788;2023-04-23T07:47:52;100057.00;;;24.08;70.71
46955;BME280;32708;51.212;6.788;2023-04-23T07:50:18;100049.28;;;24.35;67.48
46955;BME280;32708;51.212;6.788;2023-04-23T07:52:46;100043.84;;;24.84;64.53
46955;BME280;32708;51.212;6.788;2023-04-23T07:55:12;100057.63;;;25.11;63.74
46955;BME280;32708;51.212;6.788;2023-04-23T07:57:38;100064.94;;;24.29;65.14
46955;BME280;32708;51.212;6.788;2023-04-23T08:00:05;100056.22;;;24.47;64.15
46955;BME280;32708;51.212;6.788;2023-04-23T08:02:38;100052.38;;;25.95;58.08
46955;BME280;32708;51.212;6.788;2023-04-23T08:05:04;100051.00;;;24.29;63.45
46955;BME280;32708;51.212;6.788;2023-04-23T08:07:31;100046.84;;;24.17;62.43
46955;BME280;32708;51.212;6.788;2023-04-23T08:09:57;100038.31;;;25.82;57.64
46955;BME280;32708;51.212;6.788;2023-04-23T08:12:28;100036.31;;;25.83;56.15
46955;BME280;32708;51.212;6.788;2023-04-23T08:14:55;100039.31;;;25.27;57.46
46955;BME280;32708;51.212;6.788;2023-04-23T08:17:28;100031.22;;;26.23;55.26
46955;BME280;32708;51.212;6.788;2023-04-23T08:19:54;100044.97;;;25.07;57.02
46955;BME280;32708;51.212;6.788;2023-04-23T08:22:20;100039.84;;;25.38;56.21
46955;BME280;32708;51.212;6.788;2023-04-23T08:24:46;100046.63;;;23.15;63.33
46955;BME280;32708;51.212;6.788;2023-04-23T08:27:12;100052.22;;;23.38;63.61
46955;BME280;32708;51.212;6.788;2023-04-23T08:29:38;100043.19;;;23.77;62.50
46955;BME280;32708;51.212;6.788;2023-04-23T08:32:04;100047.34;;;23.69;63.58
46955;BME280;32708;51.212;6.788;2023-04-23T08:34:30;100054.09;;;23.45;64.54
46955;BME280;32708;51.212;6.788;2023-04-23T08:36:57;100055.44;;;23.37;65.15
46955;BME280;32708;51.212;6.788;2023-04-23T08:39:23;100049.75;;;24.10;62.46
46955;BME280;32708;51.212;6.788;2023-04-23T08:41:54;100044.00;;;24.77;60.84
46955;BME280;32708;51.212;6.788;2023-04-23T08:44:25;100050.22;;;23.39;64.33
46955;BME280;32708;51.212;6.788;2023-04-23T08:46:53;100037.38;;;23.92;61.40
46955;BME280;32708;51.212;6.788;2023-04-23T08:49:20;100050.22;;;22.23;64.21
46955;BME280;32708;51.212;6.788;2023-04-23T08:51:53;100048.41;;;22.71;63.11
46955;BME280;32708;51.212;6.788;2023-04-23T08:54:27;100045.97;;;22.46;64.02
46955;BME280;32708;51.212;6.788;2023-04-23T08:56:55;100048.38;;;22.10;64.38
46955;BME280;32708;51.212;6.788;2023-04-23T08:59:29;100050.06;;;23.73;60.56
46955;BME280;32708;51.212;6.788;2023-04-23T09:01:56;100040.63;;;23.16;62.71
46955;BME280;32708;51.212;6.788;2023-04-23T09:04:23;100033.22;;;23.06;62.46
46955;BME280;32708;51.212;6.788;2023-04-23T09:06:51;100042.53;;;22.96;63.54
46955;BME280;32708;51.212;6.788;2023-04-23T09:09:19;100023.78;;;24.13;59.55
46955;BME280;32708;51.212;6.788;2023-04-23T09:11:49;100021.69;;;23.08;62.31
46955;BME280;32708;51.212;6.788;2023-04-23T09:14:15;100025.13;;;23.66;60.24
46955;BME280;32708;51.212;6.788;2023-04-23T09:16:42;100023.00;;;22.69;62.24
46955;BME280;32708;51.212;6.788;2023-04-23T09:19:10;100021.94;;;22.59;62.66
46955;BME280;32708;51.212;6.788;2023-04-23T09:21:38;100014.66;;;23.23;61.39
46955;BME280;32708;51.212;6.788;2023-04-23T09:24:09;100016.59;;;23.49;59.77
46955;BME280;32708;51.212;6.788;2023-04-23T09:26:48;100021.75;;;22.73;61.61
46955;BME280;32708;51.212;6.788;2023-04-23T09:29:22;100007.22;;;23.40;60.18
46955;BME280;32708;51.212;6.788;2023-04-23T09:32:05;100016.53;;;23.76;59.76
46955;BME280;32708;51.212;6.788;2023-04-23T09:34:37;100019.81;;;23.48;60.03
46955;BME280;32708;51.212;6.788;2023-04-23T09:37:05;100005.88;;;23.71;59.57
46955;BME280;32708;51.212;6.788;2023-04-23T09:39:36;100005.13;;;22.97;59.57
46955;BME280;32708;51.212;6.788;2023-04-23T09:42:04;100002.50;;;23.60;60.58
46955;BME280;32708;51.212;6.788;2023-04-23T09:44:32;99991.28;;;23.87;58.37
46955;BME280;32708;51.212;6.788;2023-04-23T09:47:06;99997.16;;;24.68;55.54
46955;BME280;32708;51.212;6.788;2023-04-23T09:49:47;100010.38;;;22.91;61.27
46955;BME280;32708;51.212;6.788;2023-04-23T09:52:15;99997.53;;;23.48;59.15
46955;BME280;32708;51.212;6.788;2023-04-23T09:54:42;99991.19;;;23.91;59.21
46955;BME280;32708;51.212;6.788;2023-04-23T09:57:10;99982.75;;;23.27;59.52
46955;BME280;32708;51.212;6.788;2023-04-23T09:59:36;99973.06;;;22.85;59.17
46955;BME280;32708;51.212;6.788;2023-04-23T10:02:05;99978.25;;;22.56;60.42
46955;BME280;32708;51.212;6.788;2023-04-23T10:04:33;99977.72;;;22.38;61.54
46955;BME280;32708;51.212;6.788;2023-04-23T10:07:03;99973.69;;;22.69;59.90
46955;BME280;32708;51.212;6.788;2023-04-23T10:09:30;99967.88;;;22.60;58.96
46955;BME280;32708;51.212;6.788;2023-04-23T10:11:59;99958.97;;;22.42;58.96
46955;BME280;32708;51.212;6.788;2023-04-23T10:14:28;99966.03;;;23.27;56.81
46955;BME280;32708;51.212;6.788;2023-04-23T10:16:59;99966.63;;;22.92;59.82
46955;BME280;32708;51.212;6.788;2023-04-23T10:19:27;99974.47;;;21.33;64.59
46955;BME280;32708;51.212;6.788;2023-04-23T10:22:03;99996.72;;;19.47;94.49
46955;BME280;32708;51.212;6.788;2023-04-23T10:24:38;100008.78;;;20.39;100.00
46955;BME280;32708;51.212;6.788;2023-04-23T10:27:12;99965.38;;;23.43;78.14
46955;BME280;32708;51.212;6.788;2023-04-23T10:29:41;99954.06;;;25.35;67.31
46955;BME280;32708;51.212;6.788;2023-04-23T10:32:08;99956.28;;;26.01;61.32
46955;BME280;32708;51.212;6.788;2023-04-23T10:34:34;99964.94;;;26.20;63.79
46955;BME280;32708;51.212;6.788;2023-04-23T10:37:01;99973.13;;;24.55;67.30
46955;BME280;32708;51.212;6.788;2023-04-23T10:39:31;99976.41;;;24.86;66.74
46955;BME280;32708;51.212;6.788;2023-04-23T10:42:02;99968.50;;;25.01;65.86
46955;BME280;32708;51.212;6.788;2023-04-23T10:44:37;99952.59;;;26.59;60.59
46955;BME280;32708;51.212;6.788;2023-04-23T10:47:05;99951.88;;;26.29;62.32
46955;BME280;32708;51.212;6.788;2023-04-23T10:49:33;99946.31;;;26.80;60.58
46955;BME280;32708;51.212;6.788;2023-04-23T10:52:09;99949.13;;;26.68;60.38
46955;BME280;32708;51.212;6.788;2023-04-23T10:54:36;99943.16;;;26.40;60.08
46955;BME280;32708;51.212;6.788;2023-04-23T10:57:07;99952.75;;;25.85;62.21
46955;BME280;32708;51.212;6.788;2023-04-23T10:59:40;99953.69;;;26.61;60.53
46955;BME280;32708;51.212;6.788;2023-04-23T11:02:16;99953.00;;;26.96;61.80
46955;BME280;32708;51.212;6.788;2023-04-23T11:04:57;99952.63;;;26.17;62.12
46955;BME280;32708;51.212;6.788;2023-04-23T11:07:31;99945.97;;;26.66;61.75
46955;BME280;32708;51.212;6.788;2023-04-23T11:10:01;99938.00;;;27.15;58.17
46955;BME280;32708;51.212;6.788;2023-04-23T11:12:37;99924.56;;;27.10;57.45
46955;BME280;32708;51.212;6.788;2023-04-23T11:15:17;99925.50;;;27.29;56.45
46955;BME280;32708;51.212;6.788;2023-04-23T11:20:20;99918.22;;;27.31;55.32
46955;BME280;32708;51.212;6.788;2023-04-23T11:22:49;99902.69;;;27.74;50.90
46955;BME280;32708;51.212;6.788;2023-04-23T11:27:51;99889.38;;;26.20;49.20
46955;BME280;32708;51.212;6.788;2023-04-23T11:30:21;99878.28;;;25.62;47.02
46955;BME280;32708;51.212;6.788;2023-04-23T11:32:53;99880.31;;;26.28;45.53
46955;BME280;32708;51.212;6.788;2023-04-23T11:35:23;99872.28;;;26.43;44.67
46955;BME280;32708;51.212;6.788;2023-04-23T11:37:53;99875.38;;;25.94;46.14
46955;BME280;32708;51.212;6.788;2023-04-23T11:40:21;99860.38;;;26.14;43.66
46955;BME280;32708;51.212;6.788;2023-04-23T11:42:53;99862.69;;;26.44;44.30
46955;BME280;32708;51.212;6.788;2023-04-23T11:45:26;99860.97;;;25.67;45.53
46955;BME280;32708;51.212;6.788;2023-04-23T11:47:59;99854.66;;;27.50;42.49
46955;BME280;32708;51.212;6.788;2023-04-23T11:50:29;99847.81;;;26.82;42.10
46955;BME280;32708;51.212;6.788;2023-04-23T11:53:09;99855.22;;;26.88;42.86
46955;BME280;32708;51.212;6.788;2023-04-23T11:55:36;99846.78;;;28.11;40.91
46955;BME280;32708;51.212;6.788;2023-04-23T11:58:03;99835.22;;;26.52;42.72
46955;BME280;32708;51.212;6.788;2023-04-23T12:00:29;99845.81;;;27.30;42.04
46955;BME280;32708;51.212;6.788;2023-04-23T12:03:01;99832.75;;;27.80;39.75
46955;BME280;32708;51.212;6.788;2023-04-23T12:05:29;99830.13;;;28.16;38.96
46955;BME280;32708;51.212;6.788;2023-04-23T12:08:10;99817.16;;;27.00;40.03
46955;BME280;32708;51.212;6.788;2023-04-23T12:10:59;99819.50;;;26.80;40.34
46955;BME280;32708;51.212;6.788;2023-04-23T12:13:29;99812.28;;;27.70;38.78
46955;BME280;32708;51.212;6.788;2023-04-23T12:16:01;99815.31;;;27.63;39.12
46955;BME280;32708;51.212;6.788;2023-04-23T12:18:33;99796.94;;;27.62;37.11
46955;BME280;32708;51.212;6.788;2023-04-23T12:21:11;99799.34;;;28.04;36.86
46955;BME280;32708;51.212;6.788;2023-04-23T12:23:41;99791.13;;;28.09;37.31
46955;BME280;32708;51.212;6.788;2023-04-23T12:26:11;99798.84;;;27.21;37.22
46955;BME280;32708;51.212;6.788;2023-04-23T12:28:57;99785.00;;;27.70;36.15
46955;BME280;32708;51.212;6.788;2023-04-23T12:31:29;99787.75;;;28.23;34.23
46955;BME280;32708;51.212;6.788;2023-04-23T12:34:04;99771.22;;;29.81;33.15
46955;BME280;32708;51.212;6.788;2023-04-23T12:36:31;99778.53;;;28.23;34.78
46955;BME280;32708;51.212;6.788;2023-04-23T12:42:14;99784.09;;;28.63;34.14
46955;BME280;32708;51.212;6.788;2023-04-23T12:44:40;99770.72;;;29.04;33.11
46955;BME280;32708;51.212;6.788;2023-04-23T12:47:09;99766.03;;;29.10;32.75
46955;BME280;32708;51.212;6.788;2023-04-23T12:49:42;99767.91;;;28.09;33.36
46955;BME280;32708;51.212;6.788;2023-04-23T12:52:08;99771.16;;;28.84;32.25
46955;BME280;32708;51.212;6.788;2023-04-23T12:54:39;99761.84;;;28.19;31.82
46955;BME280;32708;51.212;6.788;2023-04-23T12:57:10;99763.72;;;27.51;33.36
46955;BME280;32708;51.212;6.788;2023-04-23T12:59:37;99754.75;;;29.28;31.29
46955;BME280;32708;51.212;6.788;2023-04-23T13:02:03;99754.97;;;28.20;32.06